< < Back
Terminal Aerodrome Forecast


Current Version              Previous Versions:   1  2  3  4  5  6  7  8  9  

Terminal Aerodrome Forecast

130
FTUS44 KOHX 221400 AAB
TAFCSV
TAF AMD
KCSV 221429Z 2214/2312 05011G15KT P6SM SCT011 BKN015
     FM221530 05008G17KT P6SM SKC=

Latest METAR

474
SAUS70 KWBC 230900 RRB
MTRCSV
METAR KCSV 230853Z AUTO 04005KT 10SM CLR 03/02 A3018 RMK AO2 SLP219
T00330017 55002


USA.gov is the U.S. government's official web portal to all federal, state and local government web resources and services.